ADDS METAR Data INFO
IDs: Format: Raw Decoded Include TAF

Data at: 2338 UTC 25 Feb 2018

KCTJ 252315Z AUTO 00000KT 10SM -DZ OVC100 15/14 A3017 RMK AO2 T01450139
KCTJ 252255Z AUTO 00000KT 10SM RA OVC100 15/14 A3017 RMK AO2 T01470142
KCTJ 252235Z AUTO 00000KT 10SM DZ OVC100 15/14 A3017 RMK AO2 T01470141
KCTJ 252215Z AUTO 00000KT 10SM RA OVC100 15/14 A3016 RMK AO2 T01480143
KCTJ 252155Z AUTO 00000KT 10SM -RA OVC100 15/14 A3015 RMK AO2 T01470142
KCTJ 252135Z AUTO 00000KT 10SM -RA BKN090 OVC110 15/14 A3015 RMK AO2 T01470141
KCTJ 252115Z AUTO 16003KT 10SM -RA OVC090 15/14 A3013 RMK AO2 T01470140
KCTJ 252055Z AUTO 15005KT 10SM -DZ OVC080 15/14 A3012 RMK AO2 T01470140
KCTJ 252035Z AUTO 14004KT 10SM -DZ OVC090 15/14 A3013 RMK AO2 T01470140
KCTJ 252015Z AUTO 00000KT 10SM -DZ SCT004 SCT038 BKN090 15/14 A3014 RMK AO2 T01470140
KCTJ 251955Z AUTO 16005KT 10SM RA BKN004 OVC009 15/14 A3013 RMK AO2 T01500144
KCTJ 251935Z AUTO 15006KT 10SM RA SCT006 BKN032 OVC095 15/14 A3014 RMK AO2 T01480142
KCTJ 251915Z AUTO 15006KT 10SM -RA SCT036 BKN050 OVC095 15/14 A3015 RMK AO2 T01460139
KCTJ 251855Z AUTO 14005KT 10SM -RA SCT008 BKN033 OVC090 15/14 A3016 RMK AO2 T01450138
KCTJ 251835Z AUTO 14004KT 10SM -RA OVC090 15/14 A3016 RMK AO2 T01450138
KCTJ 251815Z AUTO 15004KT 10SM -RA SCT060 SCT070 OVC090 14/13 A3017 RMK AO2 T01440133
KCTJ 251755Z AUTO 00000KT 10SM SCT009 BKN060 OVC090 14/13 A3018 RMK AO2 T01430131 10185 20132
KCTJ 251735Z AUTO 00000KT 10SM -DZ BKN009 BKN055 OVC090 14/13 A3020 RMK AO2 T01420131
KCTJ 251715Z AUTO 00000KT 10SM -RA BKN009 BKN034 OVC090 14/13 A3020 RMK AO2 T01410133
KCTJ 251655Z AUTO 00000KT 10SM -RA BKN009 BKN015 OVC090 14/13 A3022 RMK AO2 T01400131
KCTJ 251635Z AUTO 27004KT 10SM -RA BKN007 OVC013 14/13 A3024 RMK AO2 T01400132
KCTJ 251615Z AUTO 00000KT 10SM -RA SCT005 OVC008 14/13 A3021 RMK AO2 T01390133
KCTJ 251555Z AUTO 00000KT 10SM -RA BKN006 BKN022 OVC090 14/13 A3021 RMK AO2 T01390134
KCTJ 251535Z AUTO 00000KT 10SM -RA SCT006 BKN022 OVC090 14/13 A3019 RMK AO2 T01370130
KCTJ 251515Z AUTO 00000KT 7SM -RA SCT011 BKN100 OVC120 14/13 A3017 RMK AO2 T01370131
KCTJ 251455Z AUTO 00000KT 7SM -RA SCT090 OVC110 14/13 A3016 RMK AO2 T01360131
KCTJ 251435Z AUTO 00000KT 10SM -RA SCT040 SCT075 BKN090 13/13 A3016 RMK AO2 T01330126
KCTJ 251415Z AUTO 00000KT 5SM RA BKN040 BKN090 BKN120 13/13 A3017 RMK AO2 T01320125
KCTJ 251355Z AUTO 36008KT 7SM RA SCT029 SCT038 SCT100 13/12 A3017 RMK AO2 T01330124
KCTJ 251335Z AUTO 34010G16KT 7SM RA SCT009 SCT022 BKN032 14/13 A3015 RMK AO2 T01350125
KCTJ 251315Z AUTO 33017G27KT 4SM RA SCT012 BKN026 BKN037 15/13 A3015 RMK AO2 T01450131
KCTJ 251255Z AUTO 29011G19KT 5SM +RA OVC012 18/15 A3012 RMK AO2 T01770153
KCTJ 251235Z AUTO 19003KT 10SM OVC012 18/17 A3008 RMK AO2 T01830170
KCTJ 251215Z AUTO 19004KT 10SM OVC012 18/17 A3008 RMK AO2 T01810170
KCTJ 251155Z AUTO 19004KT 10SM -DZ OVC012 18/17 A3008 RMK AO2 T01830168 10190 20183
KCTJ 251135Z AUTO 19005KT 10SM OVC014 19/17 A3007 RMK AO2 T01860165
KCTJ 251115Z AUTO 21004KT 10SM -RA OVC014 19/17 A3007 RMK AO2 T01860165
KCTJ 251055Z AUTO 20004KT 10SM OVC014 19/16 A3007 RMK AO2 T01870163
KCTJ 251035Z AUTO 19005KT 10SM OVC014 19/16 A3005 RMK AO2 T01850163
KCTJ 251015Z AUTO 20005KT 10SM BKN014 OVC019 19/16 A3006 RMK AO2 T01850162
KCTJ 250955Z AUTO 21007KT 10SM OVC014 19/16 A3006 RMK AO2 T01850162
KCTJ 250935Z AUTO 21007KT 10SM OVC014 19/16 A3006 RMK AO2 T01850161
KCTJ 250915Z AUTO 20007KT 10SM OVC014 19/16 A3005 RMK AO2 T01850160
KCTJ 250855Z AUTO 22007KT 10SM OVC014 19/16 A3007 RMK AO2 T01860161
KCTJ 250835Z AUTO 23006G17KT 10SM OVC016 19/16 A3008 RMK AO2 T01870160
KCTJ 250815Z AUTO 22008G14KT 10SM OVC016 19/16 A3008 RMK AO2 T01870160
KCTJ 250755Z AUTO 21009G17KT 10SM OVC016 19/16 A3007 RMK AO2 T01880160
KCTJ 250735Z AUTO 21006G17KT 10SM OVC016 19/16 A3008 RMK AO2 T01880160
KCTJ 250715Z AUTO 22006G15KT 10SM OVC018 19/16 A3009 RMK AO2 T01860156
KCTJ 250655Z AUTO 20005KT 10SM BKN020 19/15 A3009 RMK AO2 T01850154
KCTJ 250635Z AUTO 19006KT 10SM SCT020 SCT090 19/15 A3009 RMK AO2 T01850151
KCTJ 250615Z AUTO 20007KT 10SM BKN090 19/15 A3009 RMK AO2 T01890149
KCTJ 250555Z AUTO 20007KT 150V250 10SM BKN090 19/15 A3010 RMK AO2 T01910147 10214 20191 402530161
KCTJ 250535Z AUTO 21008KT 10SM SCT090 19/15 A3010 RMK AO2 T01930146
KCTJ 250515Z AUTO 21008G15KT 10SM CLR 20/15 A3010 RMK AO2 T01950145
KCTJ 250455Z AUTO 20011G14KT 10SM CLR 20/15 A3009 RMK AO2 T01960145
KCTJ 250435Z AUTO 20006G16KT 10SM CLR 20/14 A3010 RMK AO2 T02000142
KCTJ 250415Z AUTO 21007KT 10SM CLR 20/14 A3010 RMK AO2 T02000140
KCTJ 250355Z AUTO 19006KT 10SM CLR 20/14 A3010 RMK AO2 T02000140
KCTJ 250335Z AUTO 20005KT 10SM CLR 20/14 A3010 RMK AO2 T02030140
KCTJ 250315Z AUTO 21007KT 160V240 10SM CLR 21/14 A3009 RMK AO2 T02050141
KCTJ 250255Z AUTO 20008KT 10SM CLR 20/15 A3008 RMK AO2 T02020145
KCTJ 250235Z AUTO 18005KT 10SM CLR 20/14 A3007 RMK AO2 T02020144
KCTJ 250215Z AUTO 18005KT 10SM CLR 20/14 A3008 RMK AO2 T02000141
KCTJ 250155Z AUTO 19003KT 10SM CLR 20/14 A3008 RMK AO2 T02010140
KCTJ 250135Z AUTO 17003KT 10SM SCT060 SCT070 SCT080 20/14 A3008 RMK AO2 T02040139
KCTJ 250115Z AUTO 17004KT 10SM BKN060 OVC075 21/14 A3008 RMK AO2 T02050136
KCTJ 250055Z AUTO 00000KT 10SM BKN060 BKN075 BKN110 20/14 A3007 RMK AO2 T02030135
KCTJ 250035Z AUTO 00000KT 10SM SCT050 SCT100 SCT110 21/14 A3008 RMK AO2 T02100135
KCTJ 250015Z AUTO 18003KT 10SM SCT050 SCT090 21/14 A3008 RMK AO2 T02110138
KCTJ 242355Z AUTO 19003KT 10SM CLR 21/14 A3007 RMK AO2 T02140140 10253 20214
KCTJ 242335Z AUTO 00000KT 10SM CLR 22/14 A3007 RMK AO2 T02190142
KCTJ 242315Z AUTO 18004KT 10SM CLR 23/14 A3007 RMK AO2 T02260141
KCTJ 242255Z AUTO 18006KT 10SM CLR 23/14 A3007 RMK AO2 T02340140
KCTJ 242235Z AUTO 21007G14KT 10SM SCT065 SCT075 24/14 A3008 RMK AO2 T02370138
KCTJ 242215Z AUTO 22007KT 10SM SCT065 BKN075 24/14 A3008 RMK AO2 T02370137
KCTJ 242155Z AUTO 22009KT 170V240 10SM SCT046 SCT060 SCT065 24/14 A3009 RMK AO2 T02410140
KCTJ 242135Z AUTO 21004KT 10SM SCT046 SCT060 25/14 A3008 RMK AO2 T02450141
KCTJ 242115Z AUTO 21009KT 10SM SCT048 SCT060 24/14 A3009 RMK AO2 T02430139
KCTJ 242055Z AUTO 19006G15KT 10SM SCT048 SCT090 25/13 A3009 RMK AO2 T02490132
KCTJ 242035Z AUTO 22007KT 10SM SCT046 SCT060 BKN090 24/14 A3009 RMK AO2 T02420141
KCTJ 242015Z AUTO 21008G15KT 10SM BKN046 BKN060 OVC090 24/14 A3010 RMK AO2 T02400141
KCTJ 241955Z AUTO 22006G14KT 10SM BKN046 BKN060 OVC090 24/14 A3011 RMK AO2 T02400138
KCTJ 241935Z AUTO 20008G18KT 10SM SCT046 BKN060 24/14 A3011 RMK AO2 T02430137
KCTJ 241915Z AUTO 21009G17KT 10SM SCT045 SCT050 BKN060 25/14 A3012 RMK AO2 T02480139
KCTJ 241855Z AUTO 20008G19KT 10SM SCT043 BKN060 25/14 A3014 RMK AO2 T02480138
KCTJ 241835Z AUTO 20008G17KT 150V260 10SM SCT043 BKN050 BKN065 25/14 A3015 RMK AO2 T02460139
KCTJ 241815Z AUTO 19009G19KT 10SM SCT043 BKN050 25/14 A3016 RMK AO2 T02470138
KCTJ 241755Z AUTO 24005G18KT 10SM BKN041 BKN050 24/14 A3017 RMK AO2 T02370140 10243 20165
KCTJ 241735Z AUTO 21007G18KT 160V240 10SM BKN041 BKN050 24/14 A3019 RMK AO2 T02370139
KCTJ 241715Z AUTO 20013G21KT 10SM BKN039 24/14 A3020 RMK AO2 T02420141
KCTJ 241655Z AUTO 19007G14KT 150V220 10SM BKN039 BKN120 23/15 A3020 RMK AO2 T02340145
KCTJ 241635Z AUTO 19010G16KT 10SM SCT037 BKN120 23/14 A3022 RMK AO2 T02300144
KCTJ 241615Z AUTO 21007KT 10SM SCT039 SCT120 23/15 A3022 RMK AO2 T02260146
KCTJ 241555Z AUTO 20007G15KT 170V230 10SM BKN120 22/15 A3022 RMK AO2 T02190145
KCTJ 241535Z AUTO 18009G14KT 150V210 10SM SCT120 21/15 A3023 RMK AO2 T02140147
KCTJ 241515Z AUTO 19005KT 10SM CLR 20/15 A3024 RMK AO2 T02030153
KCTJ 241455Z AUTO 18006KT 10SM SCT013 20/16 A3024 RMK AO2 T01970157
KCTJ 241435Z AUTO 19005KT 10SM SCT011 19/16 A3024 RMK AO2 T01900157
KCTJ 241415Z AUTO 18004KT 10SM SCT009 18/16 A3024 RMK AO2 T01820160
KCTJ 241355Z AUTO 17004KT 10SM SCT006 SCT120 18/16 A3024 RMK AO2 T01760160
KCTJ 241335Z AUTO 16004KT 10SM SCT006 SCT120 17/16 A3024 RMK AO2 T01700161
KCTJ 241315Z AUTO 17003KT 10SM BKN120 17/16 A3024 RMK AO2 T01650157
KCTJ 241255Z AUTO 18003KT 10SM SCT021 OVC110 17/16 A3024 RMK AO2 T01650157
KCTJ 241235Z AUTO 17003KT 10SM OVC100 17/16 A3024 RMK AO2 T01650156
KCTJ 241215Z AUTO 00000KT 10SM OVC110 17/16 A3023 RMK AO2 T01650158
KCTJ 241155Z AUTO 00000KT 10SM OVC110 17/16 A3022 RMK AO2 T01660160 10185 20161